sensor_id;sensor_type;location;lat;lon;timestamp;noise_LAeq;noise_LA_min;noise_LA_max;noise_LA01;noise_LA95
43512;Laerm;34054;52.100;5.116;2023-07-28T00:00:12;30.48;27.90;33.60;;
43512;Laerm;34054;52.100;5.116;2023-07-28T00:00:44;30.35;28.27;32.10;;
43512;Laerm;34054;52.100;5.116;2023-07-28T00:01:16;30.42;28.19;32.39;;
43512;Laerm;34054;52.100;5.116;2023-07-28T00:01:47;30.52;28.45;32.20;;
43512;Laerm;34054;52.100;5.116;2023-07-28T00:02:18;30.40;28.28;32.21;;
43512;Laerm;34054;52.100;5.116;2023-07-28T00:02:50;30.40;28.26;32.09;;
43512;Laerm;34054;52.100;5.116;2023-07-28T00:03:22;30.40;28.11;32.16;;
43512;Laerm;34054;52.100;5.116;2023-07-28T00:03:53;30.38;28.32;32.02;;
43512;Laerm;34054;52.100;5.116;2023-07-28T00:04:24;30.42;27.70;32.27;;
43512;Laerm;34054;52.100;5.116;2023-07-28T00:04:55;31.12;28.18;44.32;;
43512;Laerm;34054;52.100;5.116;2023-07-28T00:05:27;30.74;28.32;36.91;;
43512;Laerm;34054;52.100;5.116;2023-07-28T00:05:59;30.45;28.28;32.52;;
43512;Laerm;34054;52.100;5.116;2023-07-28T00:06:30;30.51;28.02;34.10;;
43512;Laerm;34054;52.100;5.116;2023-07-28T00:07:01;30.48;28.45;32.50;;
43512;Laerm;34054;52.100;5.116;2023-07-28T00:07:33;30.36;28.13;32.26;;
43512;Laerm;34054;52.100;5.116;2023-07-28T00:08:07;30.32;28.23;32.14;;
43512;Laerm;34054;52.100;5.116;2023-07-28T00:08:38;30.46;28.27;32.24;;
43512;Laerm;34054;52.100;5.116;2023-07-28T00:09:09;30.44;28.07;32.10;;
43512;Laerm;34054;52.100;5.116;2023-07-28T00:09:41;30.33;28.13;32.34;;
43512;Laerm;34054;52.100;5.116;2023-07-28T00:10:12;30.38;28.30;32.26;;
43512;Laerm;34054;52.100;5.116;2023-07-28T00:10:43;30.36;28.29;32.55;;
43512;Laerm;34054;52.100;5.116;2023-07-28T00:11:16;30.34;28.06;32.14;;
43512;Laerm;34054;52.100;5.116;2023-07-28T00:11:47;30.37;28.24;32.26;;
43512;Laerm;34054;52.100;5.116;2023-07-28T00:12:18;30.37;28.07;32.21;;
43512;Laerm;34054;52.100;5.116;2023-07-28T00:12:50;30.40;28.16;32.49;;
43512;Laerm;34054;52.100;5.116;2023-07-28T00:13:21;30.37;28.00;32.71;;
43512;Laerm;34054;52.100;5.116;2023-07-28T00:13:53;30.33;28.10;32.47;;
43512;Laerm;34054;52.100;5.116;2023-07-28T00:14:24;30.62;28.21;32.68;;
43512;Laerm;34054;52.100;5.116;2023-07-28T00:14:56;30.52;28.25;34.28;;
43512;Laerm;34054;52.100;5.116;2023-07-28T00:15:28;30.47;28.06;34.86;;
43512;Laerm;34054;52.100;5.116;2023-07-28T00:16:01;30.33;28.19;32.07;;
43512;Laerm;34054;52.100;5.116;2023-07-28T00:16:32;30.36;28.04;32.28;;
43512;Laerm;34054;52.100;5.116;2023-07-28T00:17:03;30.44;28.13;32.17;;
43512;Laerm;34054;52.100;5.116;2023-07-28T00:17:34;30.40;28.16;32.18;;
43512;Laerm;34054;52.100;5.116;2023-07-28T00:18:06;30.38;28.07;32.40;;
43512;Laerm;34054;52.100;5.116;2023-07-28T00:18:38;30.35;28.04;32.27;;
43512;Laerm;34054;52.100;5.116;2023-07-28T00:19:09;30.39;28.11;32.22;;
43512;Laerm;34054;52.100;5.116;2023-07-28T00:19:40;30.41;27.94;32.35;;
43512;Laerm;34054;52.100;5.116;2023-07-28T00:20:12;30.39;28.24;32.67;;
43512;Laerm;34054;52.100;5.116;2023-07-28T00:20:44;30.33;28.16;32.30;;
43512;Laerm;34054;52.100;5.116;2023-07-28T00:21:15;30.41;28.09;32.59;;
43512;Laerm;34054;52.100;5.116;2023-07-28T00:21:47;30.37;28.15;32.36;;
43512;Laerm;34054;52.100;5.116;2023-07-28T00:22:19;30.36;27.96;32.00;;
43512;Laerm;34054;52.100;5.116;2023-07-28T00:22:50;30.39;28.09;32.50;;
43512;Laerm;34054;52.100;5.116;2023-07-28T00:23:22;30.42;28.20;32.28;;
43512;Laerm;34054;52.100;5.116;2023-07-28T00:23:54;30.36;28.07;32.14;;
43512;Laerm;34054;52.100;5.116;2023-07-28T00:24:25;30.44;27.97;32.49;;
43512;Laerm;34054;52.100;5.116;2023-07-28T00:24:56;30.41;27.74;32.24;;
43512;Laerm;34054;52.100;5.116;2023-07-28T00:25:27;30.42;28.11;32.38;;
43512;Laerm;34054;52.100;5.116;2023-07-28T00:25:58;30.42;28.22;32.22;;
43512;Laerm;34054;52.100;5.116;2023-07-28T00:26:31;30.41;28.15;32.42;;
43512;Laerm;34054;52.100;5.116;2023-07-28T00:27:02;30.41;28.01;32.31;;
43512;Laerm;34054;52.100;5.116;2023-07-28T00:27:33;30.42;28.17;32.06;;
43512;Laerm;34054;52.100;5.116;2023-07-28T00:28:04;30.48;28.22;33.54;;
43512;Laerm;34054;52.100;5.116;2023-07-28T00:28:36;30.38;27.98;32.66;;
43512;Laerm;34054;52.100;5.116;2023-07-28T00:29:08;30.39;27.83;32.41;;
43512;Laerm;34054;52.100;5.116;2023-07-28T00:29:39;30.40;27.91;32.37;;
43512;Laerm;34054;52.100;5.116;2023-07-28T00:30:11;30.55;28.06;33.00;;
43512;Laerm;34054;52.100;5.116;2023-07-28T00:30:44;30.70;28.05;35.58;;
43512;Laerm;34054;52.100;5.116;2023-07-28T00:31:16;31.73;28.48;41.03;;
43512;Laerm;34054;52.100;5.116;2023-07-28T00:31:47;30.50;28.03;32.20;;
43512;Laerm;34054;52.100;5.116;2023-07-28T00:32:18;30.45;28.26;32.32;;
43512;Laerm;34054;52.100;5.116;2023-07-28T00:32:49;30.42;28.03;32.43;;
43512;Laerm;34054;52.100;5.116;2023-07-28T00:33:22;30.37;28.06;32.38;;
43512;Laerm;34054;52.100;5.116;2023-07-28T00:33:53;30.43;28.23;32.15;;
43512;Laerm;34054;52.100;5.116;2023-07-28T00:34:24;30.54;28.21;32.30;;
43512;Laerm;34054;52.100;5.116;2023-07-28T00:34:56;30.40;28.29;32.44;;
43512;Laerm;34054;52.100;5.116;2023-07-28T00:35:28;30.41;28.23;32.36;;
43512;Laerm;34054;52.100;5.116;2023-07-28T00:35:59;30.43;28.34;32.45;;
43512;Laerm;34054;52.100;5.116;2023-07-28T00:36:30;30.46;28.15;32.42;;
43512;Laerm;34054;52.100;5.116;2023-07-28T00:37:02;30.41;28.18;32.25;;
43512;Laerm;34054;52.100;5.116;2023-07-28T00:37:34;30.39;28.11;32.45;;
43512;Laerm;34054;52.100;5.116;2023-07-28T00:38:05;30.39;27.92;32.27;;
43512;Laerm;34054;52.100;5.116;2023-07-28T00:38:36;30.42;28.27;32.45;;
43512;Laerm;34054;52.100;5.116;2023-07-28T00:39:08;30.43;28.12;32.28;;
43512;Laerm;34054;52.100;5.116;2023-07-28T00:39:40;30.41;28.00;32.30;;
43512;Laerm;34054;52.100;5.116;2023-07-28T00:40:12;30.41;28.22;32.53;;
43512;Laerm;34054;52.100;5.116;2023-07-28T00:40:43;30.67;28.00;34.17;;
43512;Laerm;34054;52.100;5.116;2023-07-28T00:41:14;30.57;28.28;33.48;;
43512;Laerm;34054;52.100;5.116;2023-07-28T00:41:47;30.39;27.75;32.30;;
43512;Laerm;34054;52.100;5.116;2023-07-28T00:42:18;30.42;28.11;32.38;;
43512;Laerm;34054;52.100;5.116;2023-07-28T00:42:49;30.41;28.18;32.15;;
43512;Laerm;34054;52.100;5.116;2023-07-28T00:43:20;30.41;28.13;32.50;;
43512;Laerm;34054;52.100;5.116;2023-07-28T00:43:52;30.38;28.00;32.50;;
43512;Laerm;34054;52.100;5.116;2023-07-28T00:44:24;30.46;28.33;32.55;;
43512;Laerm;34054;52.100;5.116;2023-07-28T00:44:55;30.55;28.11;32.38;;
43512;Laerm;34054;52.100;5.116;2023-07-28T00:45:26;31.09;28.52;37.26;;
43512;Laerm;34054;52.100;5.116;2023-07-28T00:46:01;30.75;27.87;35.34;;
43512;Laerm;34054;52.100;5.116;2023-07-28T00:46:32;30.40;28.25;32.43;;
43512;Laerm;34054;52.100;5.116;2023-07-28T00:47:04;30.42;27.78;32.25;;
43512;Laerm;34054;52.100;5.116;2023-07-28T00:47:35;30.39;27.98;32.29;;
43512;Laerm;34054;52.100;5.116;2023-07-28T00:48:11;30.34;28.26;32.15;;
43512;Laerm;34054;52.100;5.116;2023-07-28T00:48:43;30.38;28.03;32.53;;
43512;Laerm;34054;52.100;5.116;2023-07-28T00:49:15;30.43;28.06;32.50;;
43512;Laerm;34054;52.100;5.116;2023-07-28T00:49:47;30.38;27.66;32.55;;
43512;Laerm;34054;52.100;5.116;2023-07-28T00:50:19;30.36;28.32;32.06;;
43512;Laerm;34054;52.100;5.116;2023-07-28T00:50:51;30.37;28.14;32.02;;
43512;Laerm;34054;52.100;5.116;2023-07-28T00:51:23;30.37;28.01;32.22;;
43512;Laerm;34054;52.100;5.116;2023-07-28T00:51:55;30.38;27.96;32.27;;
43512;Laerm;34054;52.100;5.116;2023-07-28T00:52:27;30.35;28.12;32.45;;
43512;Laerm;34054;52.100;5.116;2023-07-28T00:52:59;30.41;28.00;32.27;;
43512;Laerm;34054;52.100;5.116;2023-07-28T00:53:30;30.39;28.34;32.34;;
43512;Laerm;34054;52.100;5.116;2023-07-28T00:54:03;30.37;27.90;32.95;;
43512;Laerm;34054;52.100;5.116;2023-07-28T00:54:36;30.35;28.19;32.33;;
43512;Laerm;34054;52.100;5.116;2023-07-28T00:55:07;30.41;28.17;35.33;;
43512;Laerm;34054;52.100;5.116;2023-07-28T00:55:39;30.39;28.19;32.20;;
43512;Laerm;34054;52.100;5.116;2023-07-28T00:56:11;30.36;28.34;32.37;;
43512;Laerm;34054;52.100;5.116;2023-07-28T00:56:43;30.44;27.97;32.27;;
43512;Laerm;34054;52.100;5.116;2023-07-28T00:57:15;30.37;27.84;32.28;;
43512;Laerm;34054;52.100;5.116;2023-07-28T00:57:47;30.37;28.04;32.51;;
43512;Laerm;34054;52.100;5.116;2023-07-28T00:58:19;30.47;27.97;32.62;;
43512;Laerm;34054;52.100;5.116;2023-07-28T00:58:51;30.49;27.97;32.91;;
43512;Laerm;34054;52.100;5.116;2023-07-28T00:59:22;30.40;28.17;32.36;;
43512;Laerm;34054;52.100;5.116;2023-07-28T00:59:54;30.36;28.29;32.41;;
43512;Laerm;34054;52.100;5.116;2023-07-28T01:00:26;30.88;28.27;33.64;;
43512;Laerm;34054;52.100;5.116;2023-07-28T01:00:57;30.73;28.28;39.25;;
43512;Laerm;34054;52.100;5.116;2023-07-28T01:01:30;32.22;28.30;44.67;;
43512;Laerm;34054;52.100;5.116;2023-07-28T01:02:02;32.64;28.21;48.07;;
43512;Laerm;34054;52.100;5.116;2023-07-28T01:02:33;33.92;28.55;50.98;;
43512;Laerm;34054;52.100;5.116;2023-07-28T01:03:05;31.81;28.51;44.41;;
43512;Laerm;34054;52.100;5.116;2023-07-28T01:03:37;30.67;28.04;38.01;;
43512;Laerm;34054;52.100;5.116;2023-07-28T01:04:09;30.50;28.14;34.60;;
43512;Laerm;34054;52.100;5.116;2023-07-28T01:04:40;30.62;27.94;37.79;;
43512;Laerm;34054;52.100;5.116;2023-07-28T01:05:12;30.53;28.12;34.33;;
43512;Laerm;34054;52.100;5.116;2023-07-28T01:05:49;30.34;28.12;34.27;;
43512;Laerm;34054;52.100;5.116;2023-07-28T01:06:29;30.16;28.12;32.52;;
43512;Laerm;34054;52.100;5.116;2023-07-28T01:07:04;30.32;28.35;32.15;;
43512;Laerm;34054;52.100;5.116;2023-07-28T01:07:39;30.57;28.26;33.92;;
43512;Laerm;34054;52.100;5.116;2023-07-28T01:08:24;30.36;28.18;33.67;;
43512;Laerm;34054;52.100;5.116;2023-07-28T01:09:02;30.32;28.27;33.79;;
43512;Laerm;34054;52.100;5.116;2023-07-28T01:09:41;30.23;28.15;33.20;;
43512;Laerm;34054;52.100;5.116;2023-07-28T01:10:17;30.24;28.15;32.20;;
43512;Laerm;34054;52.100;5.116;2023-07-28T01:10:49;30.34;27.97;32.32;;
43512;Laerm;34054;52.100;5.116;2023-07-28T01:11:22;30.44;28.01;32.77;;
43512;Laerm;34054;52.100;5.116;2023-07-28T01:11:54;30.67;28.36;33.57;;
43512;Laerm;34054;52.100;5.116;2023-07-28T01:12:25;30.57;28.34;32.74;;
43512;Laerm;34054;52.100;5.116;2023-07-28T01:12:56;30.56;28.44;32.42;;
43512;Laerm;34054;52.100;5.116;2023-07-28T01:13:28;30.49;28.23;32.35;;
43512;Laerm;34054;52.100;5.116;2023-07-28T01:13:59;30.52;28.27;32.56;;
43512;Laerm;34054;52.100;5.116;2023-07-28T01:14:31;30.49;28.37;32.67;;
43512;Laerm;34054;52.100;5.116;2023-07-28T01:15:02;30.52;28.07;32.28;;
43512;Laerm;34054;52.100;5.116;2023-07-28T01:15:35;30.41;28.51;32.27;;
43512;Laerm;34054;52.100;5.116;2023-07-28T01:16:06;30.37;28.20;32.36;;
43512;Laerm;34054;52.100;5.116;2023-07-28T01:16:40;30.30;28.10;32.22;;
43512;Laerm;34054;52.100;5.116;2023-07-28T01:17:11;30.44;28.05;36.35;;
43512;Laerm;34054;52.100;5.116;2023-07-28T01:17:44;30.38;28.19;32.25;;
43512;Laerm;34054;52.100;5.116;2023-07-28T01:18:15;30.38;28.34;32.22;;
43512;Laerm;34054;52.100;5.116;2023-07-28T01:18:46;30.40;28.35;32.48;;
43512;Laerm;34054;52.100;5.116;2023-07-28T01:19:20;30.38;28.19;32.15;;
43512;Laerm;34054;52.100;5.116;2023-07-28T01:19:52;30.36;28.40;32.36;;
43512;Laerm;34054;52.100;5.116;2023-07-28T01:20:24;30.35;28.31;32.19;;
43512;Laerm;34054;52.100;5.116;2023-07-28T01:21:01;30.34;28.09;37.40;;
43512;Laerm;34054;52.100;5.116;2023-07-28T01:21:35;30.29;28.39;32.26;;
43512;Laerm;34054;52.100;5.116;2023-07-28T01:22:20;30.16;28.11;32.36;;
43512;Laerm;34054;52.100;5.116;2023-07-28T01:23:08;29.94;28.16;32.42;;
43512;Laerm;34054;52.100;5.116;2023-07-28T01:23:51;30.15;28.14;32.21;;
43512;Laerm;34054;52.100;5.116;2023-07-28T01:24:29;30.15;28.28;32.16;;
43512;Laerm;34054;52.100;5.116;2023-07-28T01:25:14;30.07;28.06;32.20;;
43512;Laerm;34054;52.100;5.116;2023-07-28T01:25:57;30.11;28.16;32.07;;
43512;Laerm;34054;52.100;5.116;2023-07-28T01:26:35;30.19;28.12;32.37;;
43512;Laerm;34054;52.100;5.116;2023-07-28T01:27:07;30.42;27.87;32.81;;
43512;Laerm;34054;52.100;5.116;2023-07-28T01:27:40;30.40;28.14;32.29;;
43512;Laerm;34054;52.100;5.116;2023-07-28T01:28:13;30.37;28.25;32.18;;
43512;Laerm;34054;52.100;5.116;2023-07-28T01:28:46;30.43;28.21;32.44;;
43512;Laerm;34054;52.100;5.116;2023-07-28T01:29:19;30.48;28.14;32.55;;
43512;Laerm;34054;52.100;5.116;2023-07-28T01:29:52;30.46;28.31;32.63;;
43512;Laerm;34054;52.100;5.116;2023-07-28T01:30:23;30.52;27.88;32.63;;
43512;Laerm;34054;52.100;5.116;2023-07-28T01:30:57;30.65;28.51;32.74;;
43512;Laerm;34054;52.100;5.116;2023-07-28T01:31:29;30.78;28.51;35.39;;
43512;Laerm;34054;52.100;5.116;2023-07-28T01:32:00;35.64;28.76;40.98;;
43512;Laerm;34054;52.100;5.116;2023-07-28T01:32:32;38.07;36.26;44.96;;
43512;Laerm;34054;52.100;5.116;2023-07-28T01:33:06;38.98;35.50;42.87;;
43512;Laerm;34054;52.100;5.116;2023-07-28T01:33:38;40.30;37.95;49.17;;
43512;Laerm;34054;52.100;5.116;2023-07-28T01:34:10;38.44;36.39;41.79;;
43512;Laerm;34054;52.100;5.116;2023-07-28T01:34:41;39.94;36.23;50.26;;
43512;Laerm;34054;52.100;5.116;2023-07-28T01:35:12;37.27;34.40;47.18;;
43512;Laerm;34054;52.100;5.116;2023-07-28T01:35:44;37.91;34.57;51.83;;
43512;Laerm;34054;52.100;5.116;2023-07-28T01:36:16;40.12;37.59;50.16;;
43512;Laerm;34054;52.100;5.116;2023-07-28T01:36:47;38.83;35.91;49.54;;
43512;Laerm;34054;52.100;5.116;2023-07-28T01:37:19;37.40;34.25;52.46;;
43512;Laerm;34054;52.100;5.116;2023-07-28T01:37:50;36.21;33.02;53.13;;
43512;Laerm;34054;52.100;5.116;2023-07-28T01:38:21;39.32;36.01;48.35;;
43512;Laerm;34054;52.100;5.116;2023-07-28T01:38:53;39.65;36.49;54.43;;
43512;Laerm;34054;52.100;5.116;2023-07-28T01:39:25;36.76;32.69;50.33;;
43512;Laerm;34054;52.100;5.116;2023-07-28T01:39:56;34.89;30.89;51.07;;
43512;Laerm;34054;52.100;5.116;2023-07-28T01:40:28;33.37;30.18;49.91;;
43512;Laerm;34054;52.100;5.116;2023-07-28T01:40:59;33.62;30.20;49.22;;
43512;Laerm;34054;52.100;5.116;2023-07-28T01:41:31;33.69;30.43;47.93;;
43512;Laerm;34054;52.100;5.116;2023-07-28T01:42:04;32.97;29.79;49.91;;
43512;Laerm;34054;52.100;5.116;2023-07-28T01:42:36;32.87;29.94;49.89;;
43512;Laerm;34054;52.100;5.116;2023-07-28T01:43:07;32.11;29.26;41.98;;
43512;Laerm;34054;52.100;5.116;2023-07-28T01:43:39;32.11;28.94;48.97;;
43512;Laerm;34054;52.100;5.116;2023-07-28T01:44:10;32.42;29.06;52.31;;
43512;Laerm;34054;52.100;5.116;2023-07-28T01:44:42;31.88;28.94;48.84;;
43512;Laerm;34054;52.100;5.116;2023-07-28T01:45:14;31.53;28.63;42.45;;
43512;Laerm;34054;52.100;5.116;2023-07-28T01:45:45;32.02;28.81;51.94;;
43512;Laerm;34054;52.100;5.116;2023-07-28T01:46:16;32.18;28.85;44.02;;
43512;Laerm;34054;52.100;5.116;2023-07-28T01:46:48;31.11;28.67;45.43;;
43512;Laerm;34054;52.100;5.116;2023-07-28T01:47:19;31.66;28.66;41.01;;
43512;Laerm;34054;52.100;5.116;2023-07-28T01:47:51;31.02;28.60;43.17;;
43512;Laerm;34054;52.100;5.116;2023-07-28T01:48:22;30.90;28.50;40.45;;
43512;Laerm;34054;52.100;5.116;2023-07-28T01:48:54;31.08;28.71;40.68;;
43512;Laerm;34054;52.100;5.116;2023-07-28T01:49:25;31.18;28.12;48.33;;
43512;Laerm;34054;52.100;5.116;2023-07-28T01:49:56;32.20;28.51;51.03;;
43512;Laerm;34054;52.100;5.116;2023-07-28T01:50:28;31.20;28.71;46.14;;
43512;Laerm;34054;52.100;5.116;2023-07-28T01:51:00;30.85;28.57;40.90;;
43512;Laerm;34054;52.100;5.116;2023-07-28T01:51:31;30.78;28.43;36.42;;
43512;Laerm;34054;52.100;5.116;2023-07-28T01:52:03;31.03;28.70;44.44;;
43512;Laerm;34054;52.100;5.116;2023-07-28T01:52:34;31.01;28.61;38.97;;
43512;Laerm;34054;52.100;5.116;2023-07-28T01:53:07;30.87;28.55;43.46;;
43512;Laerm;34054;52.100;5.116;2023-07-28T01:53:38;30.74;28.56;36.59;;
43512;Laerm;34054;52.100;5.116;2023-07-28T01:54:09;30.95;28.29;44.12;;
43512;Laerm;34054;52.100;5.116;2023-07-28T01:54:41;31.08;28.51;41.00;;
43512;Laerm;34054;52.100;5.116;2023-07-28T01:55:13;30.71;28.62;34.04;;
43512;Laerm;34054;52.100;5.116;2023-07-28T01:55:44;31.45;28.57;51.38;;
43512;Laerm;34054;52.100;5.116;2023-07-28T01:56:15;30.80;28.57;38.12;;
43512;Laerm;34054;52.100;5.116;2023-07-28T01:56:47;30.85;28.26;45.89;;
43512;Laerm;34054;52.100;5.116;2023-07-28T01:57:20;30.76;28.41;37.97;;
43512;Laerm;34054;52.100;5.116;2023-07-28T01:57:56;30.64;28.42;42.20;;
43512;Laerm;34054;52.100;5.116;2023-07-28T01:58:27;30.63;28.47;34.10;;
43512;Laerm;34054;52.100;5.116;2023-07-28T01:59:00;30.84;28.35;37.70;;
43512;Laerm;34054;52.100;5.116;2023-07-28T01:59:31;30.67;28.42;37.79;;
43512;Laerm;34054;52.100;5.116;2023-07-28T02:00:03;30.83;28.36;45.48;;
43512;Laerm;34054;52.100;5.116;2023-07-28T02:00:34;30.87;28.52;40.79;;
43512;Laerm;34054;52.100;5.116;2023-07-28T02:01:06;30.60;28.35;34.21;;
43512;Laerm;34054;52.100;5.116;2023-07-28T02:01:38;30.58;28.17;33.30;;
43512;Laerm;34054;52.100;5.116;2023-07-28T02:02:09;30.91;28.47;48.33;;
43512;Laerm;34054;52.100;5.116;2023-07-28T02:02:40;30.69;28.32;44.28;;
43512;Laerm;34054;52.100;5.116;2023-07-28T02:03:12;30.53;28.34;33.22;;
43512;Laerm;34054;52.100;5.116;2023-07-28T02:03:43;30.59;28.33;36.16;;
43512;Laerm;34054;52.100;5.116;2023-07-28T02:04:14;30.60;28.41;35.97;;
43512;Laerm;34054;52.100;5.116;2023-07-28T02:04:47;31.04;28.35;41.70;;
43512;Laerm;34054;52.100;5.116;2023-07-28T02:05:18;30.56;28.36;33.30;;
43512;Laerm;34054;52.100;5.116;2023-07-28T02:05:50;30.61;28.23;32.69;;
43512;Laerm;34054;52.100;5.116;2023-07-28T02:06:23;30.62;28.40;42.02;;
43512;Laerm;34054;52.100;5.116;2023-07-28T02:06:55;30.61;28.62;37.58;;
43512;Laerm;34054;52.100;5.116;2023-07-28T02:07:26;30.51;28.12;37.80;;
43512;Laerm;34054;52.100;5.116;2023-07-28T02:07:57;30.78;28.15;46.30;;
43512;Laerm;34054;52.100;5.116;2023-07-28T02:08:29;30.62;28.28;38.45;;
43512;Laerm;34054;52.100;5.116;2023-07-28T02:09:01;30.75;28.28;40.06;;
43512;Laerm;34054;52.100;5.116;2023-07-28T02:09:32;30.60;28.23;34.32;;
43512;Laerm;34054;52.100;5.116;2023-07-28T02:10:03;30.59;28.24;37.50;;
43512;Laerm;34054;52.100;5.116;2023-07-28T02:10:35;30.54;28.13;32.50;;
43512;Laerm;34054;52.100;5.116;2023-07-28T02:11:07;30.54;28.21;35.14;;
43512;Laerm;34054;52.100;5.116;2023-07-28T02:11:38;30.93;28.24;49.49;;
43512;Laerm;34054;52.100;5.116;2023-07-28T02:12:09;30.67;28.56;37.79;;
43512;Laerm;34054;52.100;5.116;2023-07-28T02:12:42;30.75;28.47;39.05;;
43512;Laerm;34054;52.100;5.116;2023-07-28T02:13:14;30.70;28.21;36.97;;
43512;Laerm;34054;52.100;5.116;2023-07-28T02:13:45;30.79;28.74;33.52;;
43512;Laerm;34054;52.100;5.116;2023-07-28T02:14:16;30.63;28.32;36.36;;
43512;Laerm;34054;52.100;5.116;2023-07-28T02:14:49;30.61;28.25;32.74;;
43512;Laerm;34054;52.100;5.116;2023-07-28T02:15:20;30.59;28.27;35.53;;
43512;Laerm;34054;52.100;5.116;2023-07-28T02:15:51;31.41;28.19;53.31;;
43512;Laerm;34054;52.100;5.116;2023-07-28T02:16:22;30.55;28.28;34.01;;
43512;Laerm;34054;52.100;5.116;2023-07-28T02:16:54;30.56;28.41;32.63;;
43512;Laerm;34054;52.100;5.116;2023-07-28T02:17:26;30.62;28.33;34.80;;
43512;Laerm;34054;52.100;5.116;2023-07-28T02:17:57;30.63;28.06;41.48;;
43512;Laerm;34054;52.100;5.116;2023-07-28T02:18:28;30.65;28.35;35.21;;
43512;Laerm;34054;52.100;5.116;2023-07-28T02:19:00;30.56;28.22;36.99;;
43512;Laerm;34054;52.100;5.116;2023-07-28T02:19:31;30.64;28.42;36.98;;
43512;Laerm;34054;52.100;5.116;2023-07-28T02:20:03;30.85;28.30;48.21;;
43512;Laerm;34054;52.100;5.116;2023-07-28T02:20:34;30.60;28.34;36.24;;
43512;Laerm;34054;52.100;5.116;2023-07-28T02:21:08;31.07;28.35;40.72;;
43512;Laerm;34054;52.100;5.116;2023-07-28T02:21:39;30.66;28.52;35.88;;
43512;Laerm;34054;52.100;5.116;2023-07-28T02:22:10;30.57;28.25;32.86;;
43512;Laerm;34054;52.100;5.116;2023-07-28T02:22:42;30.54;28.37;37.69;;
43512;Laerm;34054;52.100;5.116;2023-07-28T02:23:15;30.59;28.10;34.23;;
43512;Laerm;34054;52.100;5.116;2023-07-28T02:23:46;30.53;28.22;32.40;;
43512;Laerm;34054;52.100;5.116;2023-07-28T02:24:17;30.59;28.17;37.95;;
43512;Laerm;34054;52.100;5.116;2023-07-28T02:24:49;30.60;28.16;38.78;;
43512;Laerm;34054;52.100;5.116;2023-07-28T02:25:21;30.55;28.33;36.00;;
43512;Laerm;34054;52.100;5.116;2023-07-28T02:25:52;30.56;28.17;32.68;;
43512;Laerm;34054;52.100;5.116;2023-07-28T02:26:23;30.54;28.28;32.91;;
43512;Laerm;34054;52.100;5.116;2023-07-28T02:26:55;30.49;28.22;34.48;;
43512;Laerm;34054;52.100;5.116;2023-07-28T02:27:27;30.56;28.17;34.88;;
43512;Laerm;34054;52.100;5.116;2023-07-28T02:27:59;30.67;28.30;32.75;;
43512;Laerm;34054;52.100;5.116;2023-07-28T02:28:30;30.59;28.05;32.64;;
43512;Laerm;34054;52.100;5.116;2023-07-28T02:29:03;30.63;28.24;37.04;;
43512;Laerm;34054;52.100;5.116;2023-07-28T02:29:34;30.57;28.36;33.36;;
43512;Laerm;34054;52.100;5.116;2023-07-28T02:30:06;30.59;28.21;37.16;;
43512;Laerm;34054;52.100;5.116;2023-07-28T02:30:37;30.76;28.23;36.00;;
43512;Laerm;34054;52.100;5.116;2023-07-28T02:31:10;30.51;28.17;32.58;;
43512;Laerm;34054;52.100;5.116;2023-07-28T02:31:41;30.51;28.30;32.35;;
43512;Laerm;34054;52.100;5.116;2023-07-28T02:32:13;30.53;27.94;35.24;;
43512;Laerm;34054;52.100;5.116;2023-07-28T02:32:44;30.58;28.37;36.51;;
43512;Laerm;34054;52.100;5.116;2023-07-28T02:33:16;30.49;27.79;32.35;;
43512;Laerm;34054;52.100;5.116;2023-07-28T02:33:47;30.53;28.22;32.77;;
43512;Laerm;34054;52.100;5.116;2023-07-28T02:34:18;30.58;28.30;33.28;;
43512;Laerm;34054;52.100;5.116;2023-07-28T02:34:50;30.59;28.44;36.04;;
43512;Laerm;34054;52.100;5.116;2023-07-28T02:35:22;30.50;28.05;32.36;;
43512;Laerm;34054;52.100;5.116;2023-07-28T02:35:53;30.56;28.22;36.16;;
43512;Laerm;34054;52.100;5.116;2023-07-28T02:36:24;30.56;28.24;32.64;;
43512;Laerm;34054;52.100;5.116;2023-07-28T02:36:57;30.89;28.29;46.73;;
43512;Laerm;34054;52.100;5.116;2023-07-28T02:37:29;30.56;28.24;32.86;;
43512;Laerm;34054;52.100;5.116;2023-07-28T02:38:00;30.63;28.30;32.47;;
43512;Laerm;34054;52.100;5.116;2023-07-28T02:38:31;30.56;28.47;32.67;;
43512;Laerm;34054;52.100;5.116;2023-07-28T02:39:03;30.52;28.27;32.40;;
43512;Laerm;34054;52.100;5.116;2023-07-28T02:39:35;30.47;28.30;32.46;;
43512;Laerm;34054;52.100;5.116;2023-07-28T02:40:07;30.49;28.28;32.50;;
43512;Laerm;34054;52.100;5.116;2023-07-28T02:40:39;30.55;28.30;37.49;;
43512;Laerm;34054;52.100;5.116;2023-07-28T02:41:10;30.51;28.30;32.38;;
43512;Laerm;34054;52.100;5.116;2023-07-28T02:41:42;30.48;28.19;32.55;;
43512;Laerm;34054;52.100;5.116;2023-07-28T02:42:14;30.47;28.29;32.32;;
43512;Laerm;34054;52.100;5.116;2023-07-28T02:42:45;30.54;28.23;33.88;;
43512;Laerm;34054;52.100;5.116;2023-07-28T02:43:19;30.50;28.34;32.73;;
43512;Laerm;34054;52.100;5.116;2023-07-28T02:43:50;30.58;28.14;32.43;;
43512;Laerm;34054;52.100;5.116;2023-07-28T02:44:21;30.58;28.28;32.59;;
43512;Laerm;34054;52.100;5.116;2023-07-28T02:44:52;30.66;28.44;40.55;;
43512;Laerm;34054;52.100;5.116;2023-07-28T02:45:24;30.94;28.40;41.59;;
43512;Laerm;34054;52.100;5.116;2023-07-28T02:45:57;30.49;28.35;32.16;;
43512;Laerm;34054;52.100;5.116;2023-07-28T02:46:28;30.50;28.34;35.11;;
43512;Laerm;34054;52.100;5.116;2023-07-28T02:46:59;30.51;27.94;32.80;;
43512;Laerm;34054;52.100;5.116;2023-07-28T02:47:31;30.49;28.13;32.69;;
43512;Laerm;34054;52.100;5.116;2023-07-28T02:48:03;30.53;28.35;32.61;;
43512;Laerm;34054;52.100;5.116;2023-07-28T02:48:34;30.59;28.10;34.37;;
43512;Laerm;34054;52.100;5.116;2023-07-28T02:49:06;30.60;28.31;33.43;;
43512;Laerm;34054;52.100;5.116;2023-07-28T02:49:40;30.42;28.22;32.83;;
43512;Laerm;34054;52.100;5.116;2023-07-28T02:50:12;30.54;28.37;35.32;;
43512;Laerm;34054;52.100;5.116;2023-07-28T02:50:45;30.46;28.33;32.28;;
43512;Laerm;34054;52.100;5.116;2023-07-28T02:51:17;30.51;28.20;32.37;;
43512;Laerm;34054;52.100;5.116;2023-07-28T02:51:49;30.50;28.28;32.47;;
43512;Laerm;34054;52.100;5.116;2023-07-28T02:52:20;30.70;28.21;45.45;;
43512;Laerm;34054;52.100;5.116;2023-07-28T02:52:51;30.52;28.42;32.50;;
43512;Laerm;34054;52.100;5.116;2023-07-28T02:53:22;30.52;27.77;32.51;;
43512;Laerm;34054;52.100;5.116;2023-07-28T02:53:55;31.54;28.37;53.86;;
43512;Laerm;34054;52.100;5.116;2023-07-28T02:54:26;30.75;28.26;45.02;;
43512;Laerm;34054;52.100;5.116;2023-07-28T02:54:57;30.53;28.31;32.39;;
43512;Laerm;34054;52.100;5.116;2023-07-28T02:55:28;30.51;28.27;32.73;;
43512;Laerm;34054;52.100;5.116;2023-07-28T02:56:00;30.47;28.20;32.38;;
43512;Laerm;34054;52.100;5.116;2023-07-28T02:56:31;30.49;28.37;32.51;;
43512;Laerm;34054;52.100;5.116;2023-07-28T02:57:09;30.33;28.16;33.43;;
43512;Laerm;34054;52.100;5.116;2023-07-28T02:57:41;30.52;28.24;32.70;;
43512;Laerm;34054;52.100;5.116;2023-07-28T02:58:12;30.52;28.10;32.76;;
43512;Laerm;34054;52.100;5.116;2023-07-28T02:58:45;30.53;28.17;33.12;;
43512;Laerm;34054;52.100;5.116;2023-07-28T02:59:16;30.55;28.39;32.64;;
43512;Laerm;34054;52.100;5.116;2023-07-28T02:59:48;30.46;28.07;35.39;;